Terminal Aerodrome Forecast
Issued by NWS

Home | Current Version | Previous Version | Graphics & Text | Print | Product List | Glossary On
Versions: 1 2 3 4 5 6 7 8 9 10 11 12 13 14 15 16 17 18 19 20
000
FTUS43 KGRB 271100
TAFATW
TAF
KATW 271139Z 2712/2812 06005KT 1/2SM -RA FG OVC002
     FM271300 09005KT 1SM -RA BR OVC003
     FM271500 10003KT 2SM -RA BR SCT004 OVC010
     FM271700 35007KT 1 1/2SM -RASN OVC012
     FM271900 29011G15KT 2SM -SN BKN015
     FM272100 29008KT P6SM SCT016 BKN070
     FM280000 28007KT P6SM SCT080=

USA.gov is the U.S. government's official web portal to all federal, state and local government web resources and services.